Time;durP1;ratioP1;P1;durP2;ratioP2;P2;SDS_P1;SDS_P2;PMS_P1;PMS_P2;Temp;Humidity;BMP_temperature;BMP_pressure;BME280_temperature;BME280_humidity;BME280_pressure;Samples;Min_cycle;Max_cycle;Signal;HPM_P1;HPM_P2
2022/08/24 00:01:26;;;;;;;3.63;2.58;;;19.80;99.90;;;;;;5032399;28;20085;-82
2022/08/24 00:03:58;;;;;;;2.72;1.92;;;19.70;99.90;;;;;;5051536;28;20053;-81
2022/08/24 00:06:27;;;;;;;3.33;2.50;;;19.70;99.90;;;;;;5019913;28;20050;-80
2022/08/24 00:08:55;;;;;;;3.55;2.13;;;19.70;99.90;;;;;;5035818;28;20041;-82
2022/08/24 00:11:22;;;;;;;2.95;1.92;;;19.60;99.90;;;;;;5035689;28;20046;-81
2022/08/24 00:13:49;;;;;;;3.65;2.50;;;19.50;99.90;;;;;;5015461;28;20050;-82
2022/08/24 00:16:17;;;;;;;4.25;2.60;;;19.50;99.90;;;;;;5016174;28;20549;-82
2022/08/24 00:18:45;;;;;;;3.00;2.15;;;19.50;99.90;;;;;;4999999;28;20039;-81
2022/08/24 00:21:12;;;;;;;3.25;2.08;;;19.50;99.90;;;;;;5016204;28;20042;-82
2022/08/24 00:23:39;;;;;;;3.13;2.40;;;19.50;99.90;;;;;;5002140;28;20054;-82
2022/08/24 00:26:06;;;;;;;2.88;1.95;;;19.40;99.90;;;;;;5003136;28;20045;-82
2022/08/24 00:28:33;;;;;;;3.67;2.47;;;19.40;99.90;;;;;;5032050;28;20037;-83
2022/08/24 00:31:01;;;;;;;3.22;2.42;;;19.40;99.90;;;;;;5016163;28;20054;-81
2022/08/24 00:33:28;;;;;;;2.45;1.75;;;19.40;99.90;;;;;;5016029;28;20030;-82
2022/08/24 00:35:54;;;;;;;3.55;2.63;;;19.40;99.90;;;;;;5016098;28;20038;-81
2022/08/24 00:38:21;;;;;;;2.70;1.90;;;19.30;99.90;;;;;;5000310;28;20505;-81
2022/08/24 00:40:49;;;;;;;3.75;2.50;;;19.30;99.90;;;;;;4999826;28;20245;-82
2022/08/24 00:43:22;;;;;;;3.78;2.45;;;19.30;99.90;;;;;;4999997;28;20133;-81
2022/08/24 00:46:37;;;;;;;3.45;2.30;;;19.30;99.90;;;;;;5032622;28;20038;-82
2022/08/24 00:49:10;;;;;;;3.05;2.17;;;19.20;99.90;;;;;;5019125;28;20045;-82
2022/08/24 00:51:49;;;;;;;3.75;2.45;;;19.20;99.90;;;;;;5032030;28;20038;-81
2022/08/24 00:54:17;;;;;;;3.05;2.13;;;19.10;99.90;;;;;;5032297;28;20042;-82
2022/08/24 00:56:51;;;;;;;2.92;1.73;;;19.10;99.90;;;;;;5032135;28;20037;-81
2022/08/24 00:59:25;;;;;;;2.55;1.67;;;19.10;99.90;;;;;;5031770;28;20040;-81
2022/08/24 01:01:54;;;;;;;4.75;2.40;;;19.00;99.90;;;;;;5015972;28;20056;-82
2022/08/24 01:04:30;;;;;;;3.53;2.70;;;19.00;99.90;;;;;;5000158;28;20044;-82
2022/08/24 01:06:57;;;;;;;4.07;2.53;;;19.00;99.90;;;;;;5015376;28;20495;-82
2022/08/24 01:09:24;;;;;;;3.97;2.67;;;18.90;99.90;;;;;;4983324;28;20042;-82
2022/08/24 01:11:51;;;;;;;3.15;2.10;;;18.90;99.90;;;;;;4998914;28;20042;-81
2022/08/24 01:14:20;;;;;;;2.63;2.00;;;18.90;99.90;;;;;;5015717;28;20128;-81
2022/08/24 01:19:42;;;;;;;3.45;2.35;;;18.80;99.90;;;;;;5031848;28;20070;-82
2022/08/24 01:22:44;;;;;;;3.53;2.35;;;18.70;99.90;;;;;;5042564;28;20049;-82
2022/08/24 01:25:12;;;;;;;3.67;2.15;;;18.70;99.90;;;;;;4995611;28;20039;-81
2022/08/24 01:27:39;;;;;;;2.65;1.85;;;18.60;99.90;;;;;;4979992;28;20034;-80
2022/08/24 01:30:08;;;;;;;3.03;2.08;;;18.60;99.90;;;;;;4995436;28;20076;-81
2022/08/24 01:32:35;;;;;;;3.15;2.15;;;18.60;99.90;;;;;;5011184;28;20536;-81
2022/08/24 01:35:03;;;;;;;2.55;1.75;;;18.60;99.90;;;;;;4995766;28;20125;-81
2022/08/24 01:37:31;;;;;;;3.28;2.15;;;18.50;99.90;;;;;;4995681;28;20061;-81
2022/08/24 01:40:02;;;;;;;3.45;2.10;;;18.50;99.90;;;;;;5011326;28;20042;-81
2022/08/24 01:42:29;;;;;;;2.88;1.80;;;18.50;99.90;;;;;;4995638;28;20046;-81
2022/08/24 01:44:55;;;;;;;3.22;2.25;;;18.50;99.90;;;;;;4979407;28;20393;-82
2022/08/24 01:47:22;;;;;;;3.30;2.15;;;18.40;99.90;;;;;;4995192;28;20049;-81
2022/08/24 01:49:49;;;;;;;2.92;2.05;;;18.40;99.90;;;;;;4979594;28;20038;-81
2022/08/24 01:52:24;;;;;;;3.13;2.30;;;18.30;99.90;;;;;;4980596;28;20522;-81
2022/08/24 01:54:51;;;;;;;3.55;2.17;;;18.30;99.90;;;;;;5030647;28;20415;-82
2022/08/24 01:57:19;;;;;;;2.72;1.90;;;18.30;99.90;;;;;;5030844;28;20521;-81
2022/08/24 01:59:45;;;;;;;3.10;1.95;;;18.20;99.90;;;;;;5001181;28;20057;-81
2022/08/24 02:02:18;;;;;;;3.08;2.17;;;18.20;99.90;;;;;;5010844;28;20600;-81
2022/08/24 02:04:45;;;;;;;2.90;1.92;;;18.30;99.90;;;;;;5010916;28;20407;-81
2022/08/24 02:07:12;;;;;;;3.35;2.22;;;18.20;99.90;;;;;;5010961;28;20039;-81
2022/08/24 02:09:39;;;;;;;3.25;2.30;;;18.20;99.90;;;;;;5010879;28;20519;-82
2022/08/24 02:12:07;;;;;;;2.90;2.20;;;18.20;99.90;;;;;;4994768;28;20101;-81
2022/08/24 02:14:35;;;;;;;2.88;2.08;;;18.20;99.90;;;;;;4996410;28;20038;-82
2022/08/24 02:17:03;;;;;;;3.78;2.47;;;18.20;99.90;;;;;;5013955;28;20073;-82
2022/08/24 02:19:30;;;;;;;3.88;1.75;;;18.20;99.90;;;;;;5014243;28;20442;-82
2022/08/24 02:21:56;;;;;;;3.25;2.00;;;18.20;99.90;;;;;;5046416;28;20092;-82
2022/08/24 02:24:23;;;;;;;2.95;2.28;;;18.20;99.90;;;;;;5030438;28;20038;-82
2022/08/24 02:26:50;;;;;;;2.90;1.63;;;18.10;99.90;;;;;;5014488;28;20128;-82
2022/08/24 02:29:16;;;;;;;2.88;2.05;;;18.10;99.90;;;;;;5013892;28;20509;-81
2022/08/24 02:31:43;;;;;;;3.00;1.98;;;18.10;99.90;;;;;;4997986;28;20052;-82
2022/08/24 02:34:10;;;;;;;2.20;1.52;;;18.10;99.90;;;;;;5029708;28;20092;-82
2022/08/24 02:36:38;;;;;;;3.15;2.17;;;18.10;99.90;;;;;;5014027;28;20074;-81
2022/08/24 02:39:07;;;;;;;2.80;1.98;;;18.10;99.90;;;;;;5046326;28;20487;-82
2022/08/24 02:41:34;;;;;;;2.50;1.85;;;18.10;99.90;;;;;;5030172;28;20133;-82
2022/08/24 02:44:02;;;;;;;2.78;1.92;;;18.10;99.90;;;;;;5029659;28;20133;-82
2022/08/24 02:46:29;;;;;;;3.03;1.88;;;18.10;99.90;;;;;;4997239;28;20046;-81
2022/08/24 02:49:00;;;;;;;2.88;2.00;;;18.10;99.90;;;;;;5030342;28;20038;-81
2022/08/24 02:51:32;;;;;;;3.28;2.22;;;18.10;99.90;;;;;;5013719;28;20065;-81
2022/08/24 02:54:01;;;;;;;3.35;2.17;;;18.00;99.90;;;;;;5029711;28;20034;-82
2022/08/24 02:56:31;;;;;;;2.65;1.85;;;18.10;99.90;;;;;;5029920;28;20049;-81
2022/08/24 02:58:59;;;;;;;3.47;2.70;;;18.00;99.90;;;;;;5029765;28;20038;-82
2022/08/24 03:01:27;;;;;;;3.13;2.10;;;18.00;99.90;;;;;;5029655;28;20107;-82
2022/08/24 03:03:55;;;;;;;2.75;1.85;;;18.00;99.90;;;;;;5029869;28;20046;-81
2022/08/24 03:06:22;;;;;;;2.63;1.88;;;18.00;99.90;;;;;;4997344;28;20049;-82
2022/08/24 03:08:49;;;;;;;3.17;2.25;;;17.90;99.90;;;;;;5013438;28;20041;-81
2022/08/24 03:11:16;;;;;;;2.53;1.75;;;17.90;99.90;;;;;;5013310;28;20050;-81
2022/08/24 03:13:43;;;;;;;2.90;1.95;;;17.90;99.90;;;;;;5010814;28;20036;-82
2022/08/24 03:16:09;;;;;;;3.00;1.95;;;17.90;99.90;;;;;;4993922;28;20391;-82
2022/08/24 03:18:37;;;;;;;2.67;1.85;;;17.90;99.90;;;;;;4978062;28;20488;-81
2022/08/24 03:21:03;;;;;;;4.00;2.58;;;17.80;99.90;;;;;;5010053;28;20419;-81
2022/08/24 03:23:31;;;;;;;2.67;1.98;;;17.80;99.90;;;;;;4994466;28;20100;-81
2022/08/24 03:26:00;;;;;;;3.72;1.80;;;17.80;99.90;;;;;;4994399;28;20043;-81
2022/08/24 03:28:27;;;;;;;2.55;1.75;;;17.80;99.90;;;;;;4994380;28;20081;-82
2022/08/24 03:30:54;;;;;;;2.17;1.48;;;17.80;99.90;;;;;;4993851;28;20043;-81
2022/08/24 03:33:21;;;;;;;2.40;1.88;;;17.80;99.90;;;;;;4993635;28;20046;-82
2022/08/24 03:35:47;;;;;;;3.13;1.70;;;17.70;99.90;;;;;;5005196;28;20100;-81
2022/08/24 03:38:14;;;;;;;2.47;1.80;;;17.70;99.90;;;;;;5013521;28;20074;-81
2022/08/24 03:40:41;;;;;;;2.67;1.88;;;17.70;99.90;;;;;;5029673;28;20407;-81
2022/08/24 03:43:44;;;;;;;2.55;1.80;;;17.70;99.90;;;;;;5029091;28;20499;-81
2022/08/24 03:45:55;;;;;;;2.72;1.98;;;17.60;99.90;;;;;;5032055;28;20046;-81
2022/08/24 03:48:22;;;;;;;2.35;1.77;;;17.60;99.90;;;;;;5029055;28;20136;-82
2022/08/24 03:50:49;;;;;;;2.50;1.55;;;17.60;99.90;;;;;;5029524;28;20042;-82
2022/08/24 03:53:17;;;;;;;3.80;2.35;;;17.60;99.90;;;;;;5045537;28;20400;-81
2022/08/24 03:55:44;;;;;;;3.63;2.53;;;17.60;99.90;;;;;;5009721;28;20065;-81
2022/08/24 03:58:11;;;;;;;3.00;1.85;;;17.60;99.90;;;;;;5032519;28;20480;-82
2022/08/24 04:00:41;;;;;;;2.42;1.70;;;17.60;99.90;;;;;;5013042;28;20145;-82
2022/08/24 04:03:09;;;;;;;2.20;1.70;;;17.60;99.90;;;;;;5016732;28;20046;-82
2022/08/24 04:05:36;;;;;;;4.25;2.20;;;17.60;99.90;;;;;;5032942;28;20077;-81
2022/08/24 04:08:04;;;;;;;2.42;1.70;;;17.50;99.90;;;;;;5032829;28;20092;-82
2022/08/24 04:10:31;;;;;;;3.17;2.22;;;17.50;99.90;;;;;;5016603;28;20089;-81
2022/08/24 04:13:00;;;;;;;3.08;2.35;;;17.50;99.90;;;;;;5016330;28;20091;-82
2022/08/24 04:15:27;;;;;;;3.42;2.10;;;17.50;99.90;;;;;;5048767;28;20045;-82
2022/08/24 04:17:54;;;;;;;2.95;2.03;;;17.50;99.90;;;;;;5016257;28;20038;-80
2022/08/24 04:20:22;;;;;;;2.80;2.00;;;17.40;99.90;;;;;;5015980;28;20483;-81
2022/08/24 04:22:50;;;;;;;2.80;2.08;;;17.40;99.90;;;;;;5032608;28;20419;-82
2022/08/24 04:25:16;;;;;;;3.35;2.30;;;17.40;99.90;;;;;;5016346;28;20046;-82
2022/08/24 04:27:43;;;;;;;2.70;1.70;;;17.40;99.90;;;;;;5016803;28;20048;-81
2022/08/24 04:30:10;;;;;;;2.75;1.90;;;17.40;99.90;;;;;;5016057;28;20408;-82
2022/08/24 04:32:37;;;;;;;2.05;1.35;;;17.40;99.90;;;;;;5015859;28;20045;-82
2022/08/24 04:35:04;;;;;;;2.80;1.98;;;17.40;99.90;;;;;;5000322;28;20034;-82
2022/08/24 04:37:31;;;;;;;2.28;1.50;;;17.40;99.90;;;;;;5032309;28;20048;-81
2022/08/24 04:39:57;;;;;;;3.15;2.08;;;17.40;99.90;;;;;;5016027;28;20546;-82
2022/08/24 04:42:24;;;;;;;3.38;2.33;;;17.40;99.90;;;;;;5015811;28;20042;-81
2022/08/24 04:44:51;;;;;;;3.58;2.05;;;17.40;99.90;;;;;;5016222;28;20038;-82
2022/08/24 04:47:18;;;;;;;2.67;1.95;;;17.30;99.90;;;;;;5032014;28;20092;-82
2022/08/24 04:49:44;;;;;;;2.88;2.10;;;17.40;99.90;;;;;;5032368;28;20092;-82
2022/08/24 04:52:11;;;;;;;2.00;1.33;;;17.40;99.90;;;;;;5032421;28;20466;-81
2022/08/24 04:54:38;;;;;;;2.83;2.03;;;17.30;99.90;;;;;;5012536;28;20034;-81
2022/08/24 04:57:04;;;;;;;2.33;1.63;;;17.30;99.90;;;;;;4996673;28;20461;-82
2022/08/24 04:59:31;;;;;;;3.05;2.08;;;17.40;99.90;;;;;;5011822;28;20849;-81
2022/08/24 05:01:58;;;;;;;3.65;2.42;;;17.30;99.90;;;;;;4997452;28;20033;-81
2022/08/24 05:04:24;;;;;;;2.80;2.10;;;17.40;99.90;;;;;;4983410;28;20045;-81
2022/08/24 05:06:51;;;;;;;2.15;1.48;;;17.40;99.90;;;;;;4999725;28;20068;-82
2022/08/24 05:09:17;;;;;;;2.40;1.83;;;17.40;99.90;;;;;;4999119;28;20526;-81
2022/08/24 05:11:45;;;;;;;2.55;1.45;;;17.40;99.90;;;;;;4999241;28;20057;-82
2022/08/24 05:14:12;;;;;;;2.80;1.90;;;17.40;99.90;;;;;;5015335;28;20165;-83
2022/08/24 05:16:39;;;;;;;2.78;1.73;;;17.40;99.90;;;;;;4999130;28;20467;-82
2022/08/24 05:19:08;;;;;;;2.72;1.77;;;17.50;99.90;;;;;;4983873;28;20857;-82
2022/08/24 05:21:35;;;;;;;2.95;1.95;;;17.50;99.90;;;;;;5030747;28;20388;-81
2022/08/24 05:24:02;;;;;;;2.83;1.90;;;17.50;99.90;;;;;;4999226;28;20046;-83
2022/08/24 05:26:29;;;;;;;2.35;1.60;;;17.60;99.90;;;;;;4999304;28;20525;-81
2022/08/24 05:28:59;;;;;;;2.80;1.55;;;17.60;99.90;;;;;;5015368;28;20034;-82
2022/08/24 05:31:30;;;;;;;2.95;2.05;;;17.60;99.90;;;;;;5014461;28;20069;-82
2022/08/24 05:33:58;;;;;;;2.30;1.60;;;17.70;99.90;;;;;;5014810;28;20063;-82
2022/08/24 05:36:26;;;;;;;2.78;1.92;;;17.70;99.90;;;;;;5014862;28;20041;-82
2022/08/24 05:38:56;;;;;;;2.83;2.08;;;17.70;99.90;;;;;;5031052;28;20042;-81
2022/08/24 05:41:23;;;;;;;2.90;1.83;;;17.80;99.90;;;;;;5014383;28;20045;-82
2022/08/24 05:43:51;;;;;;;3.10;2.08;;;17.80;99.90;;;;;;5014821;28;20038;-82
2022/08/24 05:46:19;;;;;;;2.85;1.85;;;17.90;99.90;;;;;;5014747;28;20499;-82
2022/08/24 05:48:46;;;;;;;2.22;1.50;;;17.90;99.90;;;;;;5030608;28;20731;-81
2022/08/24 05:51:13;;;;;;;2.53;1.77;;;18.00;99.90;;;;;;5013350;28;20076;-82
2022/08/24 05:53:40;;;;;;;3.08;2.03;;;18.00;99.90;;;;;;5015533;28;20038;-82
2022/08/24 05:56:10;;;;;;;2.72;1.90;;;18.00;99.90;;;;;;5034832;28;20165;-83
2022/08/24 05:58:37;;;;;;;2.38;1.80;;;18.10;99.90;;;;;;5014518;28;20038;-82
2022/08/24 06:01:13;;;;;;;2.50;1.75;;;18.20;99.90;;;;;;5009201;28;20542;-81
2022/08/24 06:03:40;;;;;;;2.33;1.70;;;18.20;99.90;;;;;;5026625;28;20047;-82
2022/08/24 06:06:08;;;;;;;2.25;1.50;;;18.30;99.90;;;;;;5038100;28;20045;-81
2022/08/24 06:08:36;;;;;;;2.60;1.85;;;18.40;99.90;;;;;;5030579;28;20052;-82
2022/08/24 06:11:03;;;;;;;2.60;1.83;;;18.40;99.90;;;;;;5014521;28;20044;-81
2022/08/24 06:13:31;;;;;;;3.60;2.80;;;18.50;99.90;;;;;;5011381;28;20213;-82
2022/08/24 06:16:06;;;;;;;2.45;1.85;;;18.50;99.90;;;;;;5030455;28;20040;-81
2022/08/24 06:18:33;;;;;;;3.63;2.40;;;18.60;99.90;;;;;;5046582;28;20042;-81
2022/08/24 06:21:10;;;;;;;3.25;1.90;;;18.70;99.90;;;;;;5047108;28;20084;-81
2022/08/24 06:23:38;;;;;;;2.95;1.95;;;18.70;99.90;;;;;;5029981;28;20038;-83
2022/08/24 06:28:52;;;;;;;4.05;2.83;;;18.80;99.90;;;;;;5032581;28;20136;-83
2022/08/24 06:31:20;;;;;;;3.65;2.42;;;18.90;99.90;;;;;;5026993;28;20051;-81
2022/08/24 06:33:47;;;;;;;3.60;2.30;;;19.00;99.90;;;;;;5010110;28;20034;-82
2022/08/24 06:36:16;;;;;;;3.58;2.20;;;19.10;99.90;;;;;;4994367;28;20049;-83
2022/08/24 06:38:43;;;;;;;3.33;1.88;;;19.10;99.90;;;;;;4998546;28;20399;-83
2022/08/24 06:41:10;;;;;;;2.67;1.75;;;19.20;99.90;;;;;;4997900;28;20041;-83
2022/08/24 06:43:37;;;;;;;3.67;2.53;;;19.30;99.90;;;;;;5013459;28;20038;-84
2022/08/24 06:46:04;;;;;;;3.50;2.58;;;19.30;99.90;;;;;;5030144;28;20048;-84
2022/08/24 06:48:32;;;;;;;3.90;2.72;;;19.40;99.90;;;;;;5029774;28;20081;-82
2022/08/24 06:50:59;;;;;;;3.40;2.45;;;19.40;99.90;;;;;;5013738;28;20049;-82
2022/08/24 06:53:26;;;;;;;3.05;2.33;;;19.50;99.90;;;;;;5029835;28;20033;-82
2022/08/24 06:55:56;;;;;;;4.63;2.95;;;19.50;99.90;;;;;;5029739;28;20084;-82
2022/08/24 06:58:25;;;;;;;4.32;2.90;;;19.60;99.90;;;;;;5029701;28;20122;-82
2022/08/24 07:00:51;;;;;;;3.50;2.42;;;19.70;99.90;;;;;;5045726;28;20084;-84
2022/08/24 07:03:19;;;;;;;4.15;2.97;;;19.80;99.90;;;;;;5029608;28;20132;-82
2022/08/24 07:05:50;;;;;;;3.83;2.70;;;19.90;99.90;;;;;;4996981;28;20041;-81
2022/08/24 07:08:18;;;;;;;3.95;2.83;;;20.00;99.90;;;;;;5028631;28;20525;-86
2022/08/24 07:10:45;;;;;;;4.07;2.75;;;20.10;99.90;;;;;;5029325;28;20046;-86
2022/08/24 07:13:13;;;;;;;3.78;2.80;;;20.10;99.90;;;;;;5012001;28;20079;-86
2022/08/24 07:15:41;;;;;;;3.63;2.75;;;20.20;99.90;;;;;;5029135;28;20045;-82
2022/08/24 07:18:12;;;;;;;3.83;2.47;;;20.30;99.90;;;;;;5026086;28;20066;-82
2022/08/24 07:20:38;;;;;;;3.83;2.67;;;20.40;99.90;;;;;;5028784;28;20069;-88
2022/08/24 07:23:06;;;;;;;3.65;2.47;;;20.50;99.90;;;;;;4997494;28;20037;-88
2022/08/24 07:25:33;;;;;;;3.60;2.63;;;20.60;99.90;;;;;;5025949;28;20038;-83
2022/08/24 07:28:00;;;;;;;3.50;2.60;;;20.70;99.90;;;;;;5034400;28;20088;-88
2022/08/24 07:30:28;;;;;;;4.00;2.83;;;20.80;99.90;;;;;;5013104;28;20132;-82
2022/08/24 07:32:56;;;;;;;4.15;2.90;;;20.90;99.90;;;;;;5028966;28;20435;-87
2022/08/24 07:35:27;;;;;;;3.53;2.50;;;21.00;99.90;;;;;;5029603;28;20073;-80
2022/08/24 07:37:55;;;;;;;3.97;2.65;;;21.10;99.90;;;;;;5030599;28;20091;-84
2022/08/24 07:40:23;;;;;;;4.97;3.20;;;21.20;99.90;;;;;;5016415;28;20050;-86
2022/08/24 07:42:52;;;;;;;3.20;2.35;;;21.30;99.90;;;;;;5032978;28;20038;-85
2022/08/24 07:45:20;;;;;;;3.83;2.50;;;21.40;99.90;;;;;;5049219;28;20446;-84
2022/08/24 07:47:47;;;;;;;3.63;2.92;;;21.60;99.90;;;;;;5015726;28;20501;-81
2022/08/24 07:50:16;;;;;;;3.28;2.05;;;21.70;99.90;;;;;;4997544;28;20105;-84
2022/08/24 07:52:44;;;;;;;3.35;2.15;;;21.80;99.90;;;;;;5043363;28;20077;-80
2022/08/24 07:55:12;;;;;;;5.22;2.80;;;22.00;99.90;;;;;;5048702;28;20060;-84
2022/08/24 07:57:40;;;;;;;3.65;1.95;;;22.10;99.90;;;;;;5032288;28;20146;-84
2022/08/24 08:00:09;;;;;;;2.67;1.60;;;22.20;99.90;;;;;;5032282;28;20050;-84
2022/08/24 08:02:38;;;;;;;2.40;1.67;;;22.40;99.90;;;;;;5016147;28;20049;-80
2022/08/24 08:05:05;;;;;;;3.63;2.50;;;22.50;99.90;;;;;;5033194;28;20153;-80
2022/08/24 08:07:32;;;;;;;2.78;2.20;;;22.70;99.90;;;;;;5000671;28;20034;-84
2022/08/24 08:10:00;;;;;;;1.67;1.10;;;22.80;99.90;;;;;;5000077;28;20507;-80
2022/08/24 08:12:27;;;;;;;1.33;0.88;;;22.90;99.90;;;;;;5049026;28;20527;-84
2022/08/24 08:14:54;;;;;;;2.33;1.50;;;23.00;99.90;;;;;;4999709;28;20088;-84
2022/08/24 08:17:20;;;;;;;1.65;1.15;;;23.10;99.90;;;;;;5016058;28;20046;-80
2022/08/24 08:19:47;;;;;;;1.58;1.02;;;23.20;99.90;;;;;;4999689;28;20049;-81
2022/08/24 08:24:59;;;;;;;1.27;0.80;;;23.30;99.90;;;;;;5034889;28;20042;-84
2022/08/24 08:27:26;;;;;;;1.40;0.90;;;23.40;99.90;;;;;;5013083;28;20401;-84
2022/08/24 08:29:52;;;;;;;0.40;0.40;;;23.60;99.90;;;;;;4995776;28;20542;-81
2022/08/24 08:32:20;;;;;;;0.95;0.63;;;23.70;99.90;;;;;;4996469;28;20038;-80
2022/08/24 08:34:46;;;;;;;0.60;0.40;;;23.80;99.90;;;;;;5012073;28;20084;-84
2022/08/24 08:37:13;;;;;;;0.98;0.57;;;23.90;99.90;;;;;;5013073;28;20078;-84
2022/08/24 08:39:41;;;;;;;1.50;1.00;;;24.00;99.90;;;;;;5015896;28;20034;-83
2022/08/24 08:42:28;;;;;;;1.23;0.80;;;24.00;99.90;;;;;;5028952;28;20034;-84
2022/08/24 08:45:16;;;;;;;1.02;0.82;;;24.10;99.90;;;;;;5012286;28;20038;-80
2022/08/24 08:48:20;;;;;;;1.10;0.75;;;24.20;99.90;;;;;;5012870;28;20097;-81
2022/08/24 08:50:59;;;;;;;2.15;1.30;;;24.30;99.90;;;;;;5012067;28;20500;-84
2022/08/24 08:53:32;;;;;;;3.45;1.42;;;24.50;99.90;;;;;;5030974;28;20096;-84
2022/08/24 08:56:14;;;;;;;1.70;1.15;;;24.60;99.90;;;;;;5019367;28;20123;-84
2022/08/24 08:58:43;;;;;;;1.80;1.08;;;24.80;99.90;;;;;;5028732;28;20053;-80
2022/08/24 09:01:13;;;;;;;1.55;0.90;;;24.90;99.90;;;;;;5012203;28;20116;-84
2022/08/24 09:03:52;;;;;;;3.30;1.30;;;25.00;99.90;;;;;;5012361;28;20038;-82
2022/08/24 09:06:37;;;;;;;3.53;1.52;;;25.10;99.90;;;;;;5012331;28;20415;-81
2022/08/24 09:09:32;;;;;;;2.25;1.38;;;25.20;99.90;;;;;;5011902;28;20491;-81
2022/08/24 09:12:03;;;;;;;1.33;0.80;;;25.30;99.90;;;;;;5011851;28;20467;-84
2022/08/24 09:14:49;;;;;;;2.30;0.90;;;25.30;99.90;;;;;;5013156;28;20423;-81
2022/08/24 09:17:18;;;;;;;;;;;25.50;99.90;;;;;;5048643;28;20133;-85
2022/08/24 09:19:52;;;;;;;1.02;0.85;;;25.50;99.90;;;;;;5031632;28;19964;-85
2022/08/24 09:22:20;;;;;;;1.85;1.20;;;25.60;99.90;;;;;;5031487;28;20491;-81
2022/08/24 09:25:01;;;;;;;2.25;1.33;;;25.70;99.90;;;;;;5031524;28;20042;-81
2022/08/24 09:27:36;;;;;;;2.30;1.60;;;25.80;99.90;;;;;;5031647;28;20034;-85
2022/08/24 09:30:51;;;;;;;1.90;1.23;;;25.90;99.90;;;;;;5047130;28;20038;-81
2022/08/24 09:33:21;;;;;;;2.40;1.52;;;26.00;99.90;;;;;;5024733;28;20128;-81
2022/08/24 09:36:07;;;;;;;2.22;1.40;;;26.00;99.90;;;;;;5031101;28;20487;-84
2022/08/24 09:38:59;;;;;;;2.08;1.17;;;26.10;99.90;;;;;;5047489;28;20092;-81
2022/08/24 09:42:07;;;;;;;1.98;1.30;;;26.20;99.90;;;;;;5047270;28;20116;-82
2022/08/24 09:44:48;;;;;;;2.70;1.33;;;26.30;99.90;;;;;;4999338;28;20081;-80
2022/08/24 09:47:40;;;;;;;6.28;1.55;;;26.40;99.90;;;;;;5013076;28;20096;-80
2022/08/24 09:50:24;;;;;;;1.83;1.08;;;26.40;99.90;;;;;;5024073;28;20092;-80
2022/08/24 09:53:36;;;;;;;2.03;1.20;;;26.60;99.90;;;;;;5046695;28;20487;-83
2022/08/24 09:56:26;;;;;;;2.13;1.15;;;26.70;99.90;;;;;;4987972;28;20569;-83
2022/08/24 09:59:40;;;;;;;1.85;1.08;;;26.90;99.90;;;;;;5046305;28;20060;-83
2022/08/24 10:02:21;;;;;;;3.13;1.05;;;27.10;99.90;;;;;;4994090;28;20152;-80
2022/08/24 10:05:24;;;;;;;2.42;1.00;;;27.10;99.90;;;;;;5044635;28;20113;-83
2022/08/24 10:08:03;;;;;;;1.40;1.02;;;27.10;99.90;;;;;;5023244;28;20043;-82
2022/08/24 10:11:01;;;;;;;2.55;1.13;;;27.10;99.90;;;;;;5039718;28;20037;-80
2022/08/24 10:13:43;;;;;;;1.40;0.90;;;27.30;99.90;;;;;;5045474;28;20069;-82
2022/08/24 10:16:35;;;;;;;2.05;1.05;;;27.40;99.90;;;;;;5046778;28;20077;-83
2022/08/24 10:19:22;;;;;;;2.22;1.13;;;27.50;99.90;;;;;;5029016;28;20046;-83
2022/08/24 10:22:16;;;;;;;1.60;1.10;;;27.70;99.90;;;;;;5030042;28;20046;-79
2022/08/24 10:25:05;;;;;;;1.58;0.98;;;27.70;99.90;;;;;;5046096;28;20088;-82
2022/08/24 10:27:48;;;;;;;1.35;0.95;;;27.70;99.90;;;;;;5046268;28;20042;-80
2022/08/24 10:30:40;;;;;;;1.50;0.90;;;27.80;99.90;;;;;;5029588;28;20129;-82
2022/08/24 10:33:42;;;;;;;0.90;0.60;;;27.80;99.90;;;;;;5029532;28;20041;-80
2022/08/24 10:36:17;;;;;;;1.50;0.90;;;27.90;99.90;;;;;;5007355;28;20042;-82
2022/08/24 10:41:53;;;;;;;1.73;0.82;;;28.00;99.90;;;;;;5026029;28;20050;-79
2022/08/24 10:44:58;;;;;;;1.17;0.75;;;28.10;99.90;;;;;;5031303;28;20501;-79
2022/08/24 10:47:29;;;;;;;1.75;1.02;;;28.20;99.90;;;;;;5022092;28;20058;-83
2022/08/24 10:49:56;;;;;;;0.55;0.50;;;28.30;99.90;;;;;;5025317;28;20046;-80
2022/08/24 10:52:22;;;;;;;1.38;0.80;;;28.30;99.90;;;;;;5045801;28;20515;-82
2022/08/24 10:54:49;;;;;;;0.93;0.77;;;28.30;99.90;;;;;;5045170;28;20084;-82
2022/08/24 10:57:38;;;;;;;1.10;0.73;;;28.40;99.90;;;;;;5028576;28;20038;-82
2022/08/24 11:00:14;;;;;;;1.20;0.88;;;28.50;99.90;;;;;;5023443;28;20107;-80
2022/08/24 11:02:45;;;;;;;1.10;0.70;;;28.50;99.90;;;;;;5025819;28;20046;-83
2022/08/24 11:05:15;;;;;;;0.80;0.68;;;28.50;99.90;;;;;;5009464;28;20050;-82
2022/08/24 11:08:03;;;;;;;0.73;0.60;;;28.60;99.90;;;;;;5010123;28;20071;-83
2022/08/24 11:10:34;;;;;;;0.82;0.63;;;28.70;99.90;;;;;;5011303;28;20129;-82
2022/08/24 11:13:13;;;;;;;0.93;0.50;;;28.70;99.90;;;;;;5024285;28;20212;-83
2022/08/24 11:15:51;;;;;;;0.60;0.50;;;28.70;99.90;;;;;;5032474;28;20033;-80
2022/08/24 11:18:23;;;;;;;0.60;0.47;;;28.70;99.90;;;;;;5029704;28;20068;-82
2022/08/24 11:20:53;;;;;;;0.40;0.40;;;28.80;99.90;;;;;;5009489;28;20407;-80
2022/08/24 11:23:24;;;;;;;0.52;0.52;;;28.80;99.90;;;;;;5028567;28;20081;-83
2022/08/24 11:26:03;;;;;;;0.90;0.60;;;28.80;99.90;;;;;;5028100;28;20073;-83
2022/08/24 11:28:38;;;;;;;1.13;0.85;;;28.90;99.90;;;;;;5019117;28;20043;-80
2022/08/24 11:31:13;;;;;;;0.68;0.60;;;29.00;99.90;;;;;;5032547;28;20435;-81
2022/08/24 11:33:57;;;;;;;0.77;0.50;;;29.00;99.90;;;;;;5025427;28;20085;-80
2022/08/24 11:36:27;;;;;;;0.47;0.47;;;28.90;99.90;;;;;;5041707;28;20450;-82
2022/08/24 11:39:30;;;;;;;0.63;0.50;;;29.00;99.90;;;;;;5042033;28;20046;-80
2022/08/24 11:42:34;;;;;;;0.30;0.30;;;29.10;99.90;;;;;;5061280;28;20133;-83
2022/08/24 11:45:18;;;;;;;2.03;0.68;;;29.10;99.90;;;;;;5025203;28;20042;-82
2022/08/24 11:47:54;;;;;;;0.87;0.60;;;29.20;99.90;;;;;;5028393;28;20045;-83
2022/08/24 11:50:33;;;;;;;0.77;0.60;;;29.20;99.90;;;;;;5045255;28;20125;-83
2022/08/24 11:53:11;;;;;;;0.88;0.60;;;29.20;99.90;;;;;;5052932;28;20038;-80
2022/08/24 11:55:55;;;;;;;0.60;0.57;;;29.20;99.90;;;;;;5044911;28;20385;-83
2022/08/24 11:58:29;;;;;;;0.30;0.30;;;29.10;99.90;;;;;;5041545;28;20519;-80
2022/08/24 12:01:14;;;;;;;1.02;0.70;;;29.20;99.90;;;;;;5052581;28;20057;-83
2022/08/24 12:03:46;;;;;;;0.45;0.45;;;29.20;99.90;;;;;;5026599;28;20050;-83
2022/08/24 12:06:28;;;;;;;1.48;0.65;;;29.30;99.90;;;;;;5009189;28;20038;-83
2022/08/24 12:09:02;;;;;;;0.43;0.40;;;29.40;99.90;;;;;;5011208;28;20052;-83
2022/08/24 12:11:32;;;;;;;0.38;0.38;;;29.30;99.90;;;;;;5028338;28;20130;-83
2022/08/24 12:14:32;;;;;;;0.50;0.50;;;29.30;99.90;;;;;;5028575;28;20045;-83
2022/08/24 12:17:12;;;;;;;0.40;0.40;;;29.30;99.90;;;;;;5044770;28;20113;-80
2022/08/24 12:20:03;;;;;;;0.40;0.40;;;29.40;99.90;;;;;;5028885;28;20033;-85
2022/08/24 12:22:31;;;;;;;0.55;0.52;;;29.60;99.90;;;;;;5020078;28;20068;-79
2022/08/24 12:26:00;;;;;;;0.43;0.40;;;29.70;99.90;;;;;;5032112;28;20088;-79
2022/08/24 12:27:50;;;;;;;0.47;0.40;;;29.80;99.90;;;;;;5048496;28;20163;-82
2022/08/24 12:30:17;;;;;;;0.30;0.30;;;29.80;99.90;;;;;;5015417;28;20041;-83
2022/08/24 12:32:59;;;;;;;0.40;0.40;;;29.80;99.90;;;;;;5031528;28;20565;-82
2022/08/24 12:35:33;;;;;;;0.52;0.50;;;29.80;99.60;;;;;;5032606;28;20066;-78
2022/08/24 12:38:09;;;;;;;4.90;0.40;;;29.90;99.90;;;;;;5056845;28;20034;-78
2022/08/24 12:40:41;;;;;;;0.52;0.40;;;29.90;99.90;;;;;;5031812;28;20041;-79
2022/08/24 12:43:16;;;;;;;0.93;0.57;;;29.90;99.90;;;;;;5028379;28;20042;-79
2022/08/24 12:45:44;;;;;;;0.50;0.40;;;29.90;99.90;;;;;;5041012;28;20046;-79
2022/08/24 12:48:28;;;;;;;0.40;0.40;;;29.90;99.90;;;;;;5042519;28;20490;-83
2022/08/24 12:50:58;;;;;;;1.20;0.47;;;29.90;99.90;;;;;;5031188;28;20077;-79
2022/08/24 12:53:30;;;;;;;0.30;0.30;;;29.90;99.90;;;;;;5030424;28;20038;-85
2022/08/24 12:56:40;;;;;;;0.30;0.30;;;29.90;99.90;;;;;;5028863;28;20053;-80
2022/08/24 12:59:22;;;;;;;0.47;0.47;;;30.00;99.90;;;;;;5013859;28;20050;-81
2022/08/24 13:02:15;;;;;;;0.90;0.70;;;30.00;99.90;;;;;;5028115;28;20046;-85
2022/08/24 13:04:48;;;;;;;0.60;0.52;;;30.00;99.90;;;;;;5019258;28;20038;-83
2022/08/24 13:07:17;;;;;;;0.75;0.43;;;30.00;99.10;;;;;;5022422;28;20103;-81
2022/08/24 13:09:48;;;;;;;0.40;0.40;;;30.00;99.90;;;;;;5022065;28;20046;-80
2022/08/24 13:12:45;;;;;;;0.63;0.50;;;30.00;99.90;;;;;;5047038;28;20073;-80
2022/08/24 13:15:29;;;;;;;0.65;0.40;;;30.00;99.90;;;;;;5047706;28;20040;-81
2022/08/24 13:17:57;;;;;;;;;;;29.90;99.20;;;;;;5032002;28;20399;-81
2022/08/24 13:20:28;;;;;;;0.95;0.50;;;30.00;99.00;;;;;;5031242;28;19917;-81
2022/08/24 13:23:14;;;;;;;0.28;0.28;;;30.00;99.90;;;;;;5047958;28;20041;-86
2022/08/24 13:25:47;;;;;;;0.60;0.50;;;30.10;99.90;;;;;;5030515;28;20050;-80
2022/08/24 13:28:19;;;;;;;0.70;0.30;;;30.00;99.90;;;;;;5031214;28;20048;-86